Time;durP1;ratioP1;P1;durP2;ratioP2;P2;SDS_P1;SDS_P2;PMS_P1;PMS_P2;Temp;Humidity;BMP_temperature;BMP_pressure;BME280_temperature;BME280_humidity;BME280_pressure;Samples;Min_cycle;Max_cycle;Signal;HPM_P1;HPM_P2
2021/07/06 00:02:21;;;;;;;7.22;6.50;;;;;;;21.38;65.27;99900.63;5042750;27;100421;-92
2021/07/06 00:04:48;;;;;;;11.48;8.05;;;;;;;21.40;64.87;99884.47;5059958;27;96979;-93
2021/07/06 00:07:17;;;;;;;9.13;7.50;;;;;;;21.48;64.48;99887.31;5036241;27;98330;-94
2021/07/06 00:09:43;;;;;;;9.05;7.47;;;;;;;21.30;64.41;99873.69;5023438;27;100435;-93
2021/07/06 00:12:09;;;;;;;8.15;7.35;;;;;;;21.57;64.35;99904.38;5022822;27;100207;-93
2021/07/06 00:14:37;;;;;;;8.98;7.15;;;;;;;21.07;64.76;99846.31;5040237;27;96904;-94
2021/07/06 00:17:03;;;;;;;11.50;8.05;;;;;;;20.89;65.41;99854.06;5023516;27;96737;-93
2021/07/06 00:19:29;;;;;;;11.20;8.82;;;;;;;21.10;65.18;99864.72;5056019;27;98027;-94
2021/07/06 00:21:54;;;;;;;9.30;8.30;;;;;;;20.74;65.86;99832.19;5022350;27;100056;-95
2021/07/06 00:24:20;;;;;;;9.52;7.90;;;;;;;20.89;65.70;99856.72;5023622;27;96746;-94
2021/07/06 00:26:48;;;;;;;10.50;8.35;;;;;;;21.07;65.29;99870.31;5029462;27;97581;-96
2021/07/06 00:29:14;;;;;;;9.60;8.60;;;;;;;20.76;65.56;99837.38;5042504;27;100144;-94
2021/07/06 00:31:40;;;;;;;8.77;7.50;;;;;;;20.98;65.67;99901.31;5042083;27;99299;-93
2021/07/06 00:34:06;;;;;;;8.93;7.63;;;;;;;20.83;65.44;99880.38;5042607;27;96939;-93
2021/07/06 00:36:31;;;;;;;8.52;7.40;;;;;;;20.67;65.92;99871.00;5077030;27;96883;-94
2021/07/06 00:38:57;;;;;;;8.10;7.30;;;;;;;20.58;65.66;99853.09;5041600;27;100232;-94
2021/07/06 00:41:23;;;;;;;7.75;7.00;;;;;;;20.71;66.10;99877.78;5025489;27;99925;-95
2021/07/06 00:43:48;;;;;;;8.13;7.10;;;;;;;20.86;65.50;99898.81;5042091;27;97011;-93
2021/07/06 00:46:14;;;;;;;9.30;7.25;;;;;;;21.00;64.80;99898.47;5041693;27;97298;-94
2021/07/06 00:48:40;;;;;;;7.50;6.72;;;;;;;20.56;65.39;99847.03;5038758;27;99905;-91
2021/07/06 00:51:06;;;;;;;10.15;6.80;;;;;;;20.69;64.71;99860.22;5041378;27;101252;-94
2021/07/06 00:53:31;;;;;;;11.65;7.07;;;;;;;20.72;64.60;99863.47;5058962;27;96864;-94
2021/07/06 00:56:00;;;;;;;8.25;6.78;;;;;;;20.93;64.54;99902.66;5058816;27;96811;-94
2021/07/06 00:58:26;;;;;;;8.07;6.22;;;;;;;20.66;63.89;99836.47;5062890;27;98564;-96
2021/07/06 01:00:52;;;;;;;9.73;5.63;;;;;;;20.62;64.53;99872.34;5062391;27;100040;-92
2021/07/06 01:03:18;;;;;;;7.13;6.10;;;;;;;20.24;65.03;99829.19;5046316;27;96739;-95
2021/07/06 01:05:43;;;;;;;7.13;6.28;;;;;;;20.50;65.58;99880.34;5046042;27;96719;-96
2021/07/06 01:08:09;;;;;;;6.78;6.10;;;;;;;20.56;64.33;99855.03;5044095;27;100654;-94
2021/07/06 01:10:38;;;;;;;5.97;5.38;;;;;;;20.53;63.80;99831.31;5026333;27;101000;-95
2021/07/06 01:13:05;;;;;;;8.18;5.50;;;;;;;20.49;64.17;99837.84;5042669;27;96927;-93
2021/07/06 01:15:33;;;;;;;8.02;5.72;;;;;;;20.22;64.78;99814.34;5042628;27;97012;-93
2021/07/06 01:18:06;;;;;;;6.68;4.60;;;;;;;20.58;64.21;99869.94;5024871;27;99611;-94
2021/07/06 01:20:34;;;;;;;7.07;4.82;;;;;;;20.60;63.36;99839.66;5024348;27;101055;-92
2021/07/06 01:23:00;;;;;;;6.72;4.78;;;;;;;20.42;64.54;99855.31;5058976;27;96739;-95
2021/07/06 01:25:25;;;;;;;5.35;4.28;;;;;;;20.60;63.33;99855.66;5025582;27;96862;-94
2021/07/06 01:27:51;;;;;;;9.23;4.88;;;;;;;20.39;63.82;99847.56;5024874;27;101552;-96
2021/07/06 01:30:18;;;;;;;6.72;4.85;;;;;;;20.22;64.15;99838.31;5036397;27;101271;-94
2021/07/06 01:32:46;;;;;;;8.18;4.60;;;;;;;20.24;65.03;99849.66;5041251;27;96978;-95
2021/07/06 01:35:13;;;;;;;7.35;5.57;;;;;;;20.19;65.59;99867.84;5025201;27;97068;-94
2021/07/06 01:37:45;;;;;;;8.35;4.72;;;;;;;20.36;65.46;99883.31;5024646;27;100978;-92
2021/07/06 01:40:13;;;;;;;7.60;4.72;;;;;;;20.33;65.13;99884.44;5041914;27;97113;-94
2021/07/06 01:42:42;;;;;;;6.93;4.88;;;;;;;20.23;65.58;99861.31;5025242;27;96694;-93
2021/07/06 01:45:14;;;;;;;8.85;5.07;;;;;;;20.25;65.60;99878.88;5025263;27;96936;-94
2021/07/06 01:47:42;;;;;;;7.05;5.13;;;;;;;19.85;65.78;99819.97;5041401;27;98453;-93
2021/07/06 01:50:13;;;;;;;6.25;5.50;;;;;;;19.81;65.99;99819.38;5041170;27;97331;-94
2021/07/06 01:52:43;;;;;;;;;;;;;;;20.05;66.04;99880.47;5025231;27;96677;-92
2021/07/06 01:55:13;;;;;;;5.10;4.60;;;;;;;20.22;65.27;99878.28;5025496;27;97335;-94
2021/07/06 01:57:40;;;;;;;8.80;4.68;;;;;;;19.72;65.76;99825.41;5024412;27;100845;-93
2021/07/06 02:00:12;;;;;;;7.57;4.60;;;;;;;20.01;65.60;99868.38;5041571;27;98814;-95
2021/07/06 02:02:38;;;;;;;7.15;5.00;;;;;;;19.83;65.85;99865.34;5025053;27;96596;-92
2021/07/06 02:05:08;;;;;;;5.43;4.10;;;;;;;19.71;65.68;99831.72;5024938;27;97138;-95
2021/07/06 02:07:34;;;;;;;6.45;4.72;;;;;;;20.10;65.56;99886.28;5041421;27;101111;-94
2021/07/06 02:10:00;;;;;;;4.85;4.18;;;;;;;19.89;65.63;99864.03;5023658;27;101338;-95
2021/07/06 02:12:26;;;;;;;7.82;4.45;;;;;;;19.63;65.23;99824.34;5042823;27;97304;-94
2021/07/06 02:14:51;;;;;;;8.95;4.90;;;;;;;19.58;65.85;99839.81;5061662;27;97193;-94
2021/07/06 02:17:17;;;;;;;6.95;3.88;;;;;;;19.52;65.51;99832.31;5045014;27;101206;-94
2021/07/06 02:19:43;;;;;;;4.90;4.30;;;;;;;19.80;65.26;99862.94;5043977;27;101118;-95
2021/07/06 02:22:08;;;;;;;5.45;4.13;;;;;;;19.81;65.53;99888.63;5044702;27;96801;-94
2021/07/06 02:24:34;;;;;;;8.40;4.50;;;;;;;19.72;65.45;99872.50;5028382;27;97108;-94
2021/07/06 02:26:59;;;;;;;7.78;4.50;;;;;;;19.76;65.33;99882.81;5043661;27;100544;-95
2021/07/06 02:29:25;;;;;;;10.55;4.72;;;;;;;19.82;65.24;99881.47;5044400;27;100132;-94
2021/07/06 02:31:51;;;;;;;11.20;4.63;;;;;;;19.80;65.41;99886.91;5044650;27;97042;-94
2021/07/06 02:34:16;;;;;;;6.78;4.38;;;;;;;19.77;65.18;99891.63;5045077;27;96909;-95
2021/07/06 02:36:42;;;;;;;5.18;4.25;;;;;;;19.86;65.02;99888.25;5044047;27;101121;-92
2021/07/06 02:39:08;;;;;;;5.10;4.35;;;;;;;19.88;64.88;99880.97;5044214;27;101327;-94
2021/07/06 02:41:33;;;;;;;8.30;4.47;;;;;;;19.71;65.00;99863.69;5044616;27;97056;-94
2021/07/06 02:43:59;;;;;;;5.13;4.20;;;;;;;19.38;65.16;99824.56;5061067;27;97209;-94
2021/07/06 02:46:25;;;;;;;7.07;4.65;;;;;;;19.48;65.48;99857.47;5044016;27;101042;-93
2021/07/06 02:48:50;;;;;;;10.77;4.40;;;;;;;19.65;65.58;99883.66;5043308;27;100155;-94
2021/07/06 02:51:17;;;;;;;6.45;4.47;;;;;;;19.28;65.34;99812.94;5061564;27;97054;-94
2021/07/06 02:53:43;;;;;;;6.78;4.93;;;;;;;19.61;65.30;99868.84;5044523;27;97161;-93
2021/07/06 02:56:09;;;;;;;8.32;4.50;;;;;;;19.63;65.32;99877.59;5044329;27;100677;-95
2021/07/06 02:58:35;;;;;;;8.40;4.45;;;;;;;19.60;65.64;99883.13;5060667;27;101057;-95
2021/07/06 03:01:00;;;;;;;5.70;4.57;;;;;;;19.45;65.65;99865.69;5043565;27;97109;-96
2021/07/06 03:03:26;;;;;;;7.35;5.07;;;;;;;19.58;65.48;99889.56;5044257;27;96887;-95
2021/07/06 03:05:52;;;;;;;7.85;4.60;;;;;;;19.51;65.55;99872.34;5043062;27;100405;-95
2021/07/06 03:08:17;;;;;;;8.30;4.30;;;;;;;19.56;65.16;99872.84;5043723;27;100611;-93
2021/07/06 03:10:45;;;;;;;5.38;3.92;;;;;;;19.37;65.39;99858.34;5043600;27;97181;-93
2021/07/06 03:13:11;;;;;;;7.03;4.40;;;;;;;19.14;65.41;99822.00;5061810;27;96774;-95
2021/07/06 03:15:37;;;;;;;9.35;5.00;;;;;;;19.57;65.68;99888.69;5060219;27;101042;-94
2021/07/06 03:18:05;;;;;;;9.52;4.95;;;;;;;19.49;65.23;99853.88;5043478;27;100450;-95
2021/07/06 03:20:34;;;;;;;9.07;5.10;;;;;;;19.78;65.36;99883.53;5059951;27;97352;-94
2021/07/06 03:22:59;;;;;;;9.02;4.90;;;;;;;19.66;64.81;99852.53;5043414;27;97588;-93
2021/07/06 03:25:26;;;;;;;11.05;4.80;;;;;;;19.97;64.61;99890.91;5043362;27;99087;-94
2021/07/06 03:27:53;;;;;;;9.25;4.82;;;;;;;19.80;65.44;99884.25;5043383;27;99869;-95
2021/07/06 03:30:24;;;;;;;11.93;5.10;;;;;;;19.55;64.92;99841.88;5060730;27;97150;-95
2021/07/06 03:32:51;;;;;;;;;;;;;;;19.75;65.05;99886.44;5044230;27;96868;-95
2021/07/06 03:35:17;;;;;;;7.13;4.22;;;;;;;19.83;64.63;99885.81;5043187;27;101248;-95
2021/07/06 03:37:42;;;;;;;10.60;4.38;;;;;;;19.79;64.31;99844.44;5042656;27;100600;-91
2021/07/06 03:40:09;;;;;;;6.05;4.47;;;;;;;19.86;63.99;99851.78;5043109;27;97059;-95
2021/07/06 03:42:35;;;;;;;11.45;4.75;;;;;;;20.01;63.04;99868.38;5077888;27;96547;-95
2021/07/06 03:45:02;;;;;;;8.65;4.47;;;;;;;19.64;63.45;99823.34;5042824;27;101692;-95
2021/07/06 03:47:28;;;;;;;6.43;4.72;;;;;;;19.97;63.21;99871.41;5043127;27;100463;-95
2021/07/06 03:49:53;;;;;;;6.13;3.70;;;;;;;19.76;63.60;99834.03;5039428;27;97153;-94
2021/07/06 03:52:19;;;;;;;6.32;4.72;;;;;;;20.09;63.49;99883.75;5040206;27;97179;-96
2021/07/06 03:54:45;;;;;;;5.35;3.78;;;;;;;20.33;62.57;99899.56;5022302;27;100376;-94
2021/07/06 03:57:10;;;;;;;6.60;4.05;;;;;;;19.94;62.54;99837.88;5039717;27;97889;-93
2021/07/06 03:59:39;;;;;;;6.97;4.28;;;;;;;20.25;62.60;99873.53;5040534;27;96679;-94
2021/07/06 04:02:04;;;;;;;6.43;3.63;;;;;;;20.44;62.13;99877.34;5039315;27;96729;-94
2021/07/06 04:04:31;;;;;;;6.15;3.60;;;;;;;20.10;62.08;99817.03;5039060;27;101262;-94
2021/07/06 04:06:57;;;;;;;7.63;4.07;;;;;;;20.76;61.85;99893.38;5039136;27;98243;-94
2021/07/06 04:09:22;;;;;;;6.82;3.92;;;;;;;20.45;61.55;99871.91;5022282;27;96744;-93
2021/07/06 04:11:48;;;;;;;6.68;3.00;;;;;;;20.39;61.32;99840.44;5036940;27;96997;-94
2021/07/06 04:14:14;;;;;;;9.13;4.47;;;;;;;20.45;60.59;99831.94;5037878;27;101410;-93
2021/07/06 04:16:39;;;;;;;9.45;3.67;;;;;;;20.69;61.36;99897.56;5038646;27;97768;-95
2021/07/06 04:19:08;;;;;;;4.40;3.08;;;;;;;20.52;60.64;99850.91;5017226;27;96786;-92
2021/07/06 04:21:34;;;;;;;5.35;3.05;;;;;;;20.80;60.77;99887.69;5002876;28;96656;-95
2021/07/06 04:24:01;;;;;;;7.47;2.88;;;;;;;20.90;60.52;99897.59;5003162;28;98439;-93
2021/07/06 04:26:27;;;;;;;6.85;3.40;;;;;;;20.89;60.09;99871.91;4989543;28;101185;-95
2021/07/06 04:28:53;;;;;;;7.40;2.63;;;;;;;20.85;59.94;99862.44;4989352;28;96536;-94
2021/07/06 04:31:18;;;;;;;5.30;2.40;;;;;;;21.22;59.67;99902.88;4990325;28;96845;-94
2021/07/06 04:33:44;;;;;;;4.53;2.90;;;;;;;21.18;59.59;99902.28;5015449;28;102332;-93
2021/07/06 04:36:10;;;;;;;2.78;2.30;;;;;;;20.99;59.88;99881.63;4987770;28;100240;-95
2021/07/06 04:38:35;;;;;;;5.65;2.70;;;;;;;21.13;59.72;99874.28;5002939;28;96736;-94
2021/07/06 04:41:01;;;;;;;6.75;2.83;;;;;;;21.33;59.69;99904.63;4984909;28;97030;-93
2021/07/06 04:43:26;;;;;;;6.07;2.22;;;;;;;21.45;59.30;99911.63;4985794;28;100075;-95
2021/07/06 04:45:52;;;;;;;4.43;2.55;;;;;;;21.36;59.45;99883.88;5001879;28;101408;-94
2021/07/06 04:48:18;;;;;;;3.85;2.45;;;;;;;21.77;58.54;99903.47;4986047;28;97131;-95
2021/07/06 04:50:44;;;;;;;3.78;2.40;;;;;;;21.55;58.22;99850.25;5001993;28;97137;-93
2021/07/06 04:53:09;;;;;;;10.27;2.88;;;;;;;21.74;57.99;99854.81;4988068;27;101424;-95
2021/07/06 04:55:36;;;;;;;8.65;3.20;;;;;;;22.07;57.68;99883.88;4987383;28;101786;-95
2021/07/06 04:58:02;;;;;;;8.02;2.53;;;;;;;21.89;57.34;99870.34;4986040;28;97013;-96
2021/07/06 05:00:28;;;;;;;7.70;3.60;;;;;;;21.86;57.77;99869.78;5004901;28;96578;-94
2021/07/06 05:02:54;;;;;;;5.03;2.08;;;;;;;22.21;57.49;99888.03;5001294;28;101659;-95
2021/07/06 05:05:19;;;;;;;8.30;2.20;;;;;;;22.48;57.37;99907.94;4985272;28;100559;-93
2021/07/06 05:07:45;;;;;;;5.28;2.65;;;;;;;22.75;56.48;99912.63;5001903;28;96795;-91
2021/07/06 05:10:12;;;;;;;10.82;3.00;;;;;;;22.92;55.86;99916.41;4986567;28;96681;-95
2021/07/06 05:12:38;;;;;;;4.97;2.53;;;;;;;23.03;55.86;99909.09;5001539;28;101887;-94
2021/07/06 05:15:05;;;;;;;3.15;1.73;;;;;;;23.17;55.63;99920.38;4985371;28;101747;-91
2021/07/06 05:17:31;;;;;;;5.80;2.33;;;;;;;23.43;54.94;99917.94;4985209;28;96996;-94
2021/07/06 05:19:57;;;;;;;8.98;2.47;;;;;;;23.48;53.89;99926.38;5002687;27;97505;-94
2021/07/06 05:22:23;;;;;;;4.72;2.10;;;;;;;23.72;53.88;99924.06;5038539;27;100744;-93
2021/07/06 05:24:49;;;;;;;4.45;1.90;;;;;;;23.83;53.28;99930.25;5037800;27;99962;-93
2021/07/06 05:27:15;;;;;;;8.65;3.17;;;;;;;24.02;53.23;99930.16;5021907;27;97004;-93
2021/07/06 05:29:40;;;;;;;3.85;2.08;;;;;;;24.04;53.04;99927.34;5021724;27;96891;-94
2021/07/06 05:32:06;;;;;;;4.50;2.33;;;;;;;24.10;52.72;99913.34;5020813;27;101086;-94
2021/07/06 05:34:32;;;;;;;4.78;2.20;;;;;;;24.45;52.36;99936.72;5020739;27;101146;-94
2021/07/06 05:36:58;;;;;;;10.27;2.33;;;;;;;24.26;52.38;99904.63;5057582;27;97253;-93
2021/07/06 05:39:24;;;;;;;4.07;3.00;;;;;;;24.58;52.08;99937.22;5058651;27;97167;-93
2021/07/06 05:41:49;;;;;;;4.90;2.28;;;;;;;24.60;51.59;99892.28;5040792;27;101431;-92
2021/07/06 05:44:15;;;;;;;2.45;2.08;;;;;;;25.05;51.19;99923.56;5043028;27;100686;-95
2021/07/06 05:46:41;;;;;;;4.20;2.38;;;;;;;25.55;50.88;99948.16;5029465;27;97196;-94
2021/07/06 05:49:06;;;;;;;2.92;2.00;;;;;;;26.04;49.91;99937.72;5059503;27;97404;-96
2021/07/06 05:51:32;;;;;;;7.07;2.17;;;;;;;26.51;48.57;99913.84;5038268;27;101232;-95
2021/07/06 05:53:58;;;;;;;3.47;2.00;;;;;;;27.03;46.67;99901.97;5024300;27;101180;-95
2021/07/06 05:56:23;;;;;;;8.57;2.15;;;;;;;27.70;45.54;99912.50;5058790;27;96803;-96
2021/07/06 05:58:49;;;;;;;4.10;2.30;;;;;;;28.65;43.93;99940.28;5051308;27;97110;-95
2021/07/06 06:01:16;;;;;;;5.18;1.60;;;;;;;29.07;42.50;99894.94;5035146;27;101659;-94
2021/07/06 06:03:42;;;;;;;6.07;2.10;;;;;;;30.04;40.84;99899.50;5023955;27;101607;-94
2021/07/06 06:06:08;;;;;;;3.33;2.05;;;;;;;31.12;38.85;99904.84;5061063;27;96771;-96
2021/07/06 06:08:35;;;;;;;4.78;1.80;;;;;;;31.70;38.47;99931.78;5038667;27;96932;-96
2021/07/06 06:11:02;;;;;;;4.78;1.98;;;;;;;32.65;36.88;99904.91;5037301;27;100176;-96
2021/07/06 06:13:28;;;;;;;5.70;2.05;;;;;;;33.39;35.08;99914.78;5044984;27;99656;-95
2021/07/06 06:15:54;;;;;;;3.67;1.63;;;;;;;34.04;34.53;99909.47;5047320;27;97025;-96
2021/07/06 06:18:19;;;;;;;2.42;1.50;;;;;;;34.80;33.38;99916.00;5050870;27;96896;-95
2021/07/06 06:20:45;;;;;;;2.33;2.08;;;;;;;35.18;32.91;99926.84;5048687;27;101729;-92
2021/07/06 06:23:11;;;;;;;2.78;1.40;;;;;;;35.84;31.63;99917.22;5047383;27;100499;-95
2021/07/06 06:25:37;;;;;;;3.15;1.77;;;;;;;36.12;30.89;99885.81;5042156;27;96603;-90
2021/07/06 06:28:02;;;;;;;3.47;1.65;;;;;;;36.60;30.73;99923.22;5047297;27;97231;-94
2021/07/06 06:30:28;;;;;;;5.25;1.73;;;;;;;36.79;30.38;99902.94;5046495;27;101064;-93
2021/07/06 06:35:31;;;;;;;1.70;1.17;;;;;;;37.69;28.52;99898.28;4958644;28;95991;-85
2021/07/06 06:37:59;;;;;;;5.82;1.30;;;;;;;37.90;27.95;99878.47;4951813;28;98318;-88
2021/07/06 06:40:25;;;;;;;2.13;1.25;;;;;;;38.00;28.01;99919.81;5026636;22;99415;-92
2021/07/06 06:42:52;;;;;;;3.95;1.13;;;;;;;38.50;27.23;99921.91;5140490;22;100585;-88
2021/07/06 06:48:21;;;;;;;3.13;1.50;;;;;;;38.87;27.17;99882.28;5901360;22;99759;-83
2021/07/06 06:50:47;;;;;;;1.90;1.58;;;;;;;39.34;25.96;99910.22;5309835;22;98734;-82
2021/07/06 06:53:13;;;;;;;3.00;1.00;;;;;;;39.67;25.73;99897.50;5369303;22;99115;-93
2021/07/06 06:55:38;;;;;;;1.67;1.33;;;;;;;39.76;25.71;99871.28;4949292;28;97101;-91
2021/07/06 06:58:04;;;;;;;4.00;1.20;;;;;;;39.97;25.00;99866.03;4929827;28;101055;-91
2021/07/06 07:00:32;;;;;;;2.70;1.20;;;;;;;39.93;24.91;99903.38;5089928;23;99645;-85
2021/07/06 07:02:58;;;;;;;3.35;1.15;;;;;;;39.90;24.96;99901.97;4930956;28;96961;-92
2021/07/06 07:05:24;;;;;;;3.88;1.30;;;;;;;39.68;25.43;99874.47;5035843;22;98893;-90
2021/07/06 07:07:50;;;;;;;2.67;1.30;;;;;;;40.07;25.12;99885.41;4937476;28;96683;-83
2021/07/06 07:10:15;;;;;;;2.08;1.20;;;;;;;40.35;25.15;99872.53;4913972;28;99898;-94
2021/07/06 07:12:42;;;;;;;2.72;1.40;;;;;;;40.44;24.80;99877.31;4927927;28;101022;-95
2021/07/06 07:15:10;;;;;;;1.60;1.10;;;;;;;40.50;24.89;99894.69;4943926;28;96797;-90
2021/07/06 07:17:37;;;;;;;2.40;1.33;;;;;;;41.06;24.68;99910.94;4921967;28;96958;-89
2021/07/06 07:20:06;;;;;;;3.15;1.17;;;;;;;40.20;24.43;99886.94;4924966;28;99898;-91
2021/07/06 07:22:32;;;;;;;1.30;0.90;;;;;;;39.90;24.70;99895.63;4914508;28;101522;-93
2021/07/06 07:24:58;;;;;;;0.90;0.90;;;;;;;39.82;25.09;99866.69;4921681;28;97312;-90
2021/07/06 07:27:24;;;;;;;1.13;1.02;;;;;;;40.33;24.38;99871.97;5000969;23;96829;-95
2021/07/06 07:29:50;;;;;;;6.28;0.98;;;;;;;39.50;25.13;99866.50;4912992;28;100407;-82
2021/07/06 07:32:16;;;;;;;1.35;0.93;;;;;;;39.50;25.05;99874.75;4894504;28;101793;-95
2021/07/06 07:34:42;;;;;;;2.67;1.00;;;;;;;39.36;25.21;99869.66;4911132;28;96601;-94
2021/07/06 07:37:08;;;;;;;1.98;1.20;;;;;;;39.30;25.46;99881.63;4903347;28;97210;-93
2021/07/06 07:39:34;;;;;;;4.22;1.20;;;;;;;38.97;25.67;99903.56;4907410;28;101000;-82
2021/07/06 07:42:03;;;;;;;2.85;1.10;;;;;;;38.85;26.15;99867.97;4936206;28;97307;-87
2021/07/06 07:44:44;;;;;;;2.05;1.20;;;;;;;39.43;26.07;99905.13;5260406;22;98318;-92
2021/07/06 07:47:10;;;;;;;1.55;0.80;;;;;;;39.68;26.13;99888.19;4918008;28;96705;-83
2021/07/06 07:49:36;;;;;;;3.08;1.10;;;;;;;39.72;26.10;99899.50;5361608;23;99080;-90
2021/07/06 07:52:02;;;;;;;3.88;1.40;;;;;;;38.81;26.84;99877.78;5122322;23;99406;-91
2021/07/06 07:54:28;;;;;;;2.63;1.30;;;;;;;38.02;27.94;99862.88;4921377;28;95805;-90
2021/07/06 07:56:53;;;;;;;1.30;1.15;;;;;;;37.43;28.56;99861.28;4936924;28;96800;-84
2021/07/06 07:59:19;;;;;;;1.20;1.10;;;;;;;36.95;28.67;99871.34;5187566;23;99751;-90
2021/07/06 08:01:45;;;;;;;2.22;1.27;;;;;;;36.48;29.61;99877.53;4912666;28;97987;-84
2021/07/06 08:06:59;;;;;;;1.73;1.27;;;;;;;37.32;28.63;99888.44;5437604;23;98766;-84
2021/07/06 08:09:25;;;;;;;2.30;1.20;;;;;;;36.28;29.78;99898.84;5432395;23;99470;-88
2021/07/06 08:17:53;;;;;;;4.50;1.10;;;;;;;36.06;29.10;99903.94;6050264;23;99177;31
2021/07/06 08:20:18;;;;;;;2.17;1.10;;;;;;;35.63;29.84;99854.88;4885828;28;99923;-88
2021/07/06 08:22:44;;;;;;;2.42;1.00;;;;;;;36.65;28.82;99888.66;4882176;28;98681;-88
2021/07/06 08:25:10;;;;;;;1.42;0.98;;;;;;;36.55;28.64;99896.59;4882918;28;96561;-93
2021/07/06 08:27:36;;;;;;;1.45;1.13;;;;;;;37.03;28.16;99864.72;4887954;28;96594;-84
2021/07/06 08:30:03;;;;;;;2.92;1.17;;;;;;;37.49;26.83;99857.59;4906541;28;97465;-94
2021/07/06 08:32:29;;;;;;;1.52;1.00;;;;;;;36.83;27.31;99860.41;4887258;28;99863;-96
2021/07/06 08:40:28;;;;;;;2.75;1.38;;;;;;;36.21;28.46;99877.06;5021458;23;98042;-92
2021/07/06 08:42:55;;;;;;;1.40;1.13;;;;;;;35.94;28.51;99887.47;4935090;28;99136;-92
2021/07/06 08:45:21;;;;;;;1.25;0.85;;;;;;;35.55;29.29;99878.69;4937925;28;96633;-94
2021/07/06 08:50:22;;;;;;;1.90;0.90;;;;;;;35.72;28.64;99869.88;4935352;28;99364;-95
2021/07/06 08:52:48;;;;;;;0.88;0.70;;;;;;;35.74;28.21;99835.81;4934252;28;96747;-87
2021/07/06 08:55:15;;;;;;;1.73;1.00;;;;;;;36.15;27.89;99847.09;4901188;28;97782;-87
2021/07/06 08:57:42;;;;;;;1.48;1.00;;;;;;;36.67;28.22;99878.31;4893804;28;96909;-89
2021/07/06 09:00:13;;;;;;;1.67;1.17;;;;;;;36.25;28.02;99872.81;4898562;28;101701;-92
2021/07/06 09:02:38;;;;;;;1.42;0.88;;;;;;;35.54;28.51;99865.22;4895119;28;99947;-85
2021/07/06 09:05:05;;;;;;;1.00;0.90;;;;;;;34.80;29.34;99875.94;4911531;28;98915;-95
2021/07/06 09:07:42;;;;;;;2.75;1.00;;;;;;;35.02;29.88;99872.81;4917443;28;96776;-91
2021/07/06 09:10:19;;;;;;;1.38;1.20;;;;;;;34.33;30.45;99877.28;4898878;28;100124;-91
2021/07/06 09:12:45;;;;;;;2.83;1.33;;;;;;;33.53;31.72;99869.38;4905864;28;96971;-85
2021/07/06 09:15:37;;;;;;;2.00;1.50;;;;;;;33.68;31.70;99872.69;4880422;28;98179;-87
2021/07/06 09:18:15;;;;;;;3.15;0.90;;;;;;;34.00;31.60;99883.66;4904554;28;97565;-89
2021/07/06 09:20:43;;;;;;;1.42;0.90;;;;;;;34.26;30.71;99877.28;4901036;28;98215;-87
2021/07/06 09:23:22;;;;;;;3.60;0.90;;;;;;;34.19;30.95;99873.78;4896609;28;97140;-88
2021/07/06 09:26:06;;;;;;;1.00;1.00;;;;;;;33.45;31.48;99859.53;4881195;28;97364;-88
2021/07/06 09:28:34;;;;;;;1.30;0.88;;;;;;;32.49;33.56;99870.78;4900734;28;96873;-86
2021/07/06 09:31:18;;;;;;;6.25;1.00;;;;;;;32.39;33.42;99873.06;4897399;28;98487;-89
2021/07/06 09:34:03;;;;;;;2.10;1.10;;;;;;;32.13;34.14;99863.78;4918315;28;100712;-85
2021/07/06 09:36:49;;;;;;;2.40;0.90;;;;;;;31.86;34.38;99862.81;4928799;28;96698;-96
2021/07/06 09:39:39;;;;;;;2.17;0.98;;;;;;;31.71;34.74;99862.13;4949886;28;96528;-92
2021/07/06 09:44:51;;;;;;;1.02;0.95;;;;;;;31.98;34.16;99815.09;5406511;23;98946;-96
2021/07/06 09:47:19;;;;;;;1.45;0.90;;;;;;;31.39;34.47;99818.34;4958206;23;96017;-94
2021/07/06 09:49:59;;;;;;;1.75;1.10;;;;;;;31.16;35.80;99856.53;4956868;28;96368;-86
2021/07/06 09:52:25;;;;;;;3.00;1.00;;;;;;;31.00;35.82;99840.53;4901224;28;100697;-86
2021/07/06 09:54:54;;;;;;;2.15;1.15;;;;;;;30.51;36.17;99808.84;4913891;28;98250;-85
2021/07/06 09:57:29;;;;;;;2.92;1.13;;;;;;;30.76;36.42;99823.66;4918410;28;97197;-87
2021/07/06 10:00:02;;;;;;;1.55;1.10;;;;;;;31.18;35.43;99865.28;4926396;28;96735;-86
2021/07/06 10:02:39;;;;;;;1.23;1.08;;;;;;;30.80;36.07;99851.22;4932022;28;97882;-85
2021/07/06 10:05:08;;;;;;;3.17;0.98;;;;;;;30.02;37.23;99840.16;4888615;28;101365;-87
2021/07/06 10:07:35;;;;;;;3.03;1.00;;;;;;;30.24;37.03;99824.81;4928063;28;96936;-86
2021/07/06 10:10:04;;;;;;;1.27;1.00;;;;;;;30.29;37.16;99838.63;4921398;28;97228;-87
2021/07/06 10:12:30;;;;;;;1.30;1.10;;;;;;;30.55;36.90;99835.34;4887420;28;101617;-87
2021/07/06 10:14:55;;;;;;;1.50;1.30;;;;;;;30.74;36.64;99841.13;4899515;28;100334;-84
2021/07/06 10:17:21;;;;;;;1.35;1.00;;;;;;;30.75;36.17;99832.81;4902107;28;97193;-87
2021/07/06 10:19:46;;;;;;;2.13;1.88;;;;;;;30.94;36.02;99828.63;4931849;28;97286;-88
2021/07/06 10:22:16;;;;;;;1.77;1.00;;;;;;;31.12;36.07;99828.97;4918740;28;101235;-92
2021/07/06 10:24:43;;;;;;;1.02;0.93;;;;;;;31.07;36.25;99844.16;4919123;28;100880;-89
2021/07/06 10:27:32;;;;;;;1.48;1.10;;;;;;;30.86;36.36;99840.47;4915837;28;96776;-89
2021/07/06 10:30:16;;;;;;;4.78;1.05;;;;;;;30.48;36.73;99833.59;4928009;28;96642;-92
2021/07/06 10:32:53;;;;;;;2.80;0.98;;;;;;;30.22;36.54;99832.28;4917562;28;99611;-95
2021/07/06 10:35:37;;;;;;;1.38;1.08;;;;;;;30.02;36.76;99823.94;4932558;28;97350;-92
2021/07/06 10:38:33;;;;;;;2.38;1.13;;;;;;;30.11;36.74;99825.50;4932033;28;97074;-92
2021/07/06 10:41:00;;;;;;;1.60;1.10;;;;;;;30.34;36.93;99833.47;4940229;28;97159;-93
2021/07/06 10:43:52;;;;;;;3.20;1.20;;;;;;;30.55;36.08;99832.63;4916556;28;99537;-88
2021/07/06 10:46:21;;;;;;;0.85;0.80;;;;;;;30.79;35.91;99839.53;4945697;28;97075;-92
2021/07/06 10:49:06;;;;;;;3.40;1.00;;;;;;;30.71;36.17;99823.41;4945021;28;97011;-91
2021/07/06 10:51:35;;;;;;;1.10;1.00;;;;;;;30.54;35.85;99822.81;4936492;28;96475;-89
2021/07/06 10:54:11;;;;;;;1.02;0.90;;;;;;;30.14;36.98;99816.16;4939936;28;100200;-90
2021/07/06 10:56:44;;;;;;;1.00;0.90;;;;;;;30.04;36.66;99789.38;4930211;28;99954;-92
2021/07/06 10:59:20;;;;;;;3.85;1.10;;;;;;;30.36;36.59;99811.63;4920088;28;96828;-90
2021/07/06 11:01:49;;;;;;;2.78;1.10;;;;;;;30.28;37.13;99812.56;4914392;28;96824;-90
2021/07/06 11:04:45;;;;;;;1.40;0.90;;;;;;;30.13;37.01;99801.75;4951499;28;97561;-90
2021/07/06 11:07:16;;;;;;;1.77;1.02;;;;;;;30.02;36.89;99796.88;4929956;28;100516;-91
2021/07/06 11:09:41;;;;;;;;;;;;;;;29.99;37.15;99791.81;4918279;28;96734;-92
2021/07/06 11:12:26;;;;;;;1.52;0.90;;;;;;;30.12;37.04;99797.38;4950818;28;97131;-91
2021/07/06 11:14:56;;;;;;;1.63;0.90;;;;;;;30.13;36.70;99782.81;4929244;28;97033;-91
2021/07/06 11:17:45;;;;;;;1.42;0.98;;;;;;;29.99;36.78;99772.88;4928748;28;100132;-90
2021/07/06 11:20:16;;;;;;;1.45;0.73;;;;;;;30.11;36.99;99774.06;4930557;28;96721;-90
2021/07/06 11:22:55;;;;;;;2.72;0.80;;;;;;;30.19;37.53;99779.34;4911225;28;97057;-90
2021/07/06 11:25:37;;;;;;;2.05;0.80;;;;;;;30.11;37.20;99784.91;4899874;28;99795;-87
2021/07/06 11:28:12;;;;;;;3.50;1.15;;;;;;;30.14;37.46;99789.09;4932368;28;101380;-90
2021/07/06 11:30:41;;;;;;;6.65;1.15;;;;;;;30.08;37.08;99784.44;4937893;28;96601;-91
2021/07/06 11:33:09;;;;;;;1.05;0.90;;;;;;;29.97;37.29;99774.97;4927997;28;96729;-87
2021/07/06 11:35:38;;;;;;;3.42;1.00;;;;;;;30.15;37.12;99797.00;4928247;28;100812;-88
2021/07/06 11:38:14;;;;;;;5.88;0.90;;;;;;;30.05;36.58;99799.19;4895421;28;99718;-89
2021/07/06 11:40:42;;;;;;;1.30;0.95;;;;;;;29.65;37.02;99784.38;4909672;28;97201;-86
2021/07/06 11:43:09;;;;;;;0.90;0.85;;;;;;;29.71;37.24;99789.00;4924443;28;97094;-91
2021/07/06 11:45:37;;;;;;;1.92;0.98;;;;;;;29.96;37.63;99784.94;4923098;28;100358;-91
2021/07/06 11:48:08;;;;;;;1.77;0.90;;;;;;;29.84;36.48;99755.88;4941014;28;98232;-93
2021/07/06 11:50:40;;;;;;;1.60;0.80;;;;;;;29.99;36.88;99778.28;4924891;28;96661;-93
2021/07/06 11:53:06;;;;;;;2.03;1.00;;;;;;;29.61;37.37;99737.06;4898521;28;96785;-88
2021/07/06 11:55:33;;;;;;;2.70;0.90;;;;;;;29.70;37.46;99766.53;4908615;28;100096;-89
2021/07/06 11:58:00;;;;;;;1.50;0.85;;;;;;;29.52;37.39;99739.84;4901724;28;100220;-87
2021/07/06 12:00:28;;;;;;;2.40;0.90;;;;;;;29.84;37.62;99769.38;4914963;28;96756;-88
2021/07/06 12:03:17;;;;;;;3.05;0.85;;;;;;;30.03;37.40;99770.66;4920178;28;96937;-94